createdAt,value
2023-01-28T00:01:51.404Z,12.15
2023-01-28T00:06:54.878Z,13.30
2023-01-28T00:11:59.153Z,12.25
2023-01-28T00:17:06.275Z,14.57
2023-01-28T00:22:09.434Z,9.02
2023-01-28T00:27:12.844Z,10.52
2023-01-28T00:32:17.426Z,10.80
2023-01-28T00:37:20.566Z,9.93
2023-01-28T00:42:23.712Z,10.45
2023-01-28T00:47:28.305Z,12.85
2023-01-28T00:52:31.573Z,11.50
2023-01-28T00:57:34.709Z,10.25
2023-01-28T01:02:41.780Z,8.85
2023-01-28T01:07:45.476Z,13.57
2023-01-28T01:12:48.936Z,9.68
2023-01-28T01:17:53.815Z,9.73
2023-01-28T01:22:57.845Z,7.97
2023-01-28T01:28:00.999Z,11.63
2023-01-28T01:33:05.565Z,8.40
2023-01-28T01:38:09.463Z,8.87
2023-01-28T01:43:18.031Z,9.43
2023-01-28T01:48:26.919Z,8.60
2023-01-28T01:53:32.664Z,9.32
2023-01-28T01:58:41.630Z,8.65
2023-01-28T02:03:52.939Z,8.45
2023-01-28T02:08:56.859Z,8.00
2023-01-28T02:14:02.951Z,8.13
2023-01-28T02:19:09.207Z,6.55
2023-01-28T02:24:30.426Z,7.97
2023-01-28T02:29:43.528Z,7.57
2023-01-28T02:34:52.489Z,9.95
2023-01-28T02:40:01.642Z,7.50
2023-01-28T02:45:17.128Z,6.63
2023-01-28T02:55:36.682Z,5.85
2023-01-28T03:00:50.510Z,6.72
2023-01-28T03:06:07.120Z,8.75
2023-01-28T03:11:27.688Z,7.03
2023-01-28T03:16:52.397Z,7.05
2023-01-28T03:22:13.841Z,6.03
2023-01-28T03:27:40.770Z,6.40
2023-01-28T03:33:03.960Z,7.43
2023-01-28T03:38:18.352Z,5.63
2023-01-28T03:43:21.520Z,6.65
2023-01-28T03:48:28.377Z,6.70
2023-01-28T03:53:31.562Z,6.35
2023-01-28T03:58:53.005Z,7.18
2023-01-28T04:03:57.602Z,5.43
2023-01-28T04:09:00.725Z,5.63
2023-01-28T04:14:03.891Z,9.35
2023-01-28T04:19:08.624Z,5.43
2023-01-28T04:24:11.930Z,5.27
2023-01-28T04:29:15.455Z,5.15
2023-01-28T04:34:20.589Z,5.38
2023-01-28T04:39:23.773Z,5.63
2023-01-28T04:44:26.946Z,5.53
2023-01-28T04:49:31.458Z,4.32
2023-01-28T04:54:34.594Z,6.07
2023-01-28T04:59:37.842Z,4.97
2023-01-28T05:04:42.399Z,3.60
2023-01-28T05:09:45.539Z,6.37
2023-01-28T05:14:48.661Z,6.53
2023-01-28T05:19:53.223Z,5.55
2023-01-28T05:24:56.347Z,5.53
2023-01-28T05:29:59.507Z,4.97
2023-01-28T05:35:04.074Z,6.68
2023-01-28T05:40:08.491Z,4.27
2023-01-28T05:45:12.519Z,4.07
2023-01-28T05:50:17.943Z,5.35
2023-01-28T06:00:24.536Z,5.47
2023-01-28T06:05:29.104Z,4.85
2023-01-28T06:10:32.415Z,6.17
2023-01-28T06:15:35.600Z,4.43
2023-01-28T06:20:40.162Z,4.70
2023-01-28T06:25:43.325Z,6.13
2023-01-28T06:30:49.750Z,5.65
2023-01-28T06:35:54.395Z,5.35
2023-01-28T06:40:58.373Z,4.20
2023-01-28T06:46:01.963Z,4.95
2023-01-28T06:51:07.144Z,4.63
2023-01-28T06:56:10.295Z,3.95
2023-01-28T07:01:13.438Z,4.30
2023-01-28T07:06:18.257Z,4.45
2023-01-28T07:11:21.394Z,6.20
2023-01-28T07:16:24.513Z,6.00
2023-01-28T07:21:29.066Z,5.57
2023-01-28T07:26:32.468Z,5.63
2023-01-28T07:31:35.762Z,4.88
2023-01-28T07:36:40.425Z,4.97
2023-01-28T07:41:43.530Z,3.70
2023-01-28T07:46:46.791Z,4.43
2023-01-28T07:51:51.320Z,4.32
2023-01-28T07:56:54.467Z,6.30
2023-01-28T08:01:57.595Z,5.68
2023-01-28T08:07:02.168Z,5.50
2023-01-28T08:12:05.775Z,4.67
2023-01-28T08:17:08.863Z,5.38
2023-01-28T08:22:13.395Z,5.80
2023-01-28T08:27:16.551Z,7.83
2023-01-28T08:32:19.696Z,8.30
2023-01-28T08:37:24.250Z,20.63
2023-01-28T08:42:27.464Z,10.90
2023-01-28T08:47:30.606Z,6.18
2023-01-28T08:52:35.129Z,8.90
2023-01-28T08:57:38.241Z,6.73
2023-01-28T09:02:41.497Z,6.43
2023-01-28T09:07:46.898Z,8.35
2023-01-28T09:17:59.479Z,5.80
2023-01-28T09:23:04.286Z,6.80
2023-01-28T09:28:08.080Z,7.13
2023-01-28T09:33:11.247Z,9.45
2023-01-28T09:38:15.884Z,8.07
2023-01-28T09:43:51.505Z,7.90
2023-01-28T09:48:55.147Z,6.95
2023-01-28T09:54:05.805Z,9.30
2023-01-28T09:59:19.674Z,9.38
2023-01-28T10:04:32.604Z,21.38
2023-01-28T10:09:46.839Z,23.60
2023-01-28T10:14:59.799Z,14.20
2023-01-28T10:20:07.468Z,10.95
2023-01-28T10:25:20.694Z,9.80
2023-01-28T10:30:26.459Z,11.05
2023-01-28T10:35:30.964Z,7.53
2023-01-28T10:40:35.826Z,8.37
2023-01-28T10:45:44.202Z,7.28
2023-01-28T10:50:53.735Z,8.50
2023-01-28T10:56:01.564Z,9.13
2023-01-28T11:01:07.994Z,10.13
2023-01-28T11:06:26.430Z,11.65
2023-01-28T11:11:31.953Z,11.02
2023-01-28T11:16:35.168Z,12.18
2023-01-28T11:21:39.108Z,10.50
2023-01-28T11:26:47.177Z,9.85
2023-01-28T11:31:50.880Z,6.95
2023-01-28T11:36:55.690Z,4.93
2023-01-28T11:42:14.290Z,6.72
2023-01-28T11:47:36.831Z,4.20
2023-01-28T11:53:06.234Z,7.65
2023-01-28T11:58:24.173Z,5.85
2023-01-28T12:03:43.590Z,5.65
2023-01-28T12:08:57.287Z,6.82
2023-01-28T12:14:11.823Z,7.38
2023-01-28T12:19:34.817Z,7.43
2023-01-28T12:24:52.328Z,7.47
2023-01-28T12:30:05.370Z,5.53
2023-01-28T12:35:36.976Z,5.30
2023-01-28T12:41:10.303Z,10.18
2023-01-28T12:46:28.048Z,6.70
2023-01-28T12:51:37.320Z,7.75
2023-01-28T12:56:44.649Z,8.57
2023-01-28T13:01:55.684Z,6.95
2023-01-28T13:07:04.046Z,5.75
2023-01-28T13:12:07.758Z,5.38
2023-01-28T13:17:13.850Z,6.60
2023-01-28T13:22:29.694Z,4.10
2023-01-28T13:27:32.833Z,4.95
2023-01-28T13:32:37.821Z,3.83
2023-01-28T13:37:47.187Z,4.40
2023-01-28T13:43:00.664Z,5.53
2023-01-28T13:48:24.132Z,4.88
2023-01-28T13:53:40.936Z,6.10
2023-01-28T13:59:16.997Z,5.00
2023-01-28T14:04:46.352Z,5.10
2023-01-28T14:10:09.887Z,5.53
2023-01-28T14:15:40.576Z,3.97
2023-01-28T14:20:46.985Z,4.65
2023-01-28T14:26:02.978Z,4.25
2023-01-28T14:31:10.946Z,4.90
2023-01-28T14:36:16.372Z,4.25
2023-01-28T14:41:26.354Z,5.00
2023-01-28T14:46:38.652Z,5.47
2023-01-28T14:52:12.735Z,5.45
2023-01-28T14:57:46.142Z,6.57
2023-01-28T15:02:49.463Z,5.47
2023-01-28T15:07:54.770Z,5.80
2023-01-28T15:13:01.812Z,5.38
2023-01-28T15:18:09.245Z,5.53
2023-01-28T15:23:18.101Z,4.82
2023-01-28T15:28:28.022Z,4.60
2023-01-28T15:33:31.177Z,4.35
2023-01-28T15:38:35.758Z,4.30
2023-01-28T15:43:40.328Z,3.20
2023-01-28T15:48:47.551Z,4.40
2023-01-28T15:53:55.073Z,7.05
2023-01-28T15:59:09.029Z,7.57
2023-01-28T16:04:24.905Z,6.47
2023-01-28T16:09:32.054Z,7.32
2023-01-28T16:14:43.699Z,7.72
2023-01-28T16:19:50.095Z,6.97
2023-01-28T16:24:55.563Z,7.25
2023-01-28T16:29:58.930Z,6.63
2023-01-28T16:35:03.340Z,8.65
2023-01-28T16:40:10.567Z,8.23
2023-01-28T16:45:19.375Z,7.20
2023-01-28T16:50:23.142Z,8.65
2023-01-28T16:55:28.035Z,14.00
2023-01-28T17:00:33.363Z,13.35
2023-01-28T17:05:36.514Z,20.98
2023-01-28T17:10:41.039Z,20.52
2023-01-28T17:15:44.149Z,22.35
2023-01-28T17:20:47.308Z,28.15
2023-01-28T17:25:51.997Z,23.85
2023-01-28T17:30:55.339Z,31.52
2023-01-28T17:35:58.661Z,26.15
2023-01-28T17:41:04.856Z,21.50
2023-01-28T17:46:12.466Z,19.98
2023-01-28T17:51:17.374Z,22.52
2023-01-28T17:56:24.237Z,34.83
2023-01-28T18:01:28.099Z,32.13
2023-01-28T18:06:32.680Z,30.80
2023-01-28T18:11:37.251Z,29.55
2023-01-28T18:16:40.498Z,36.70
2023-01-28T18:21:52.603Z,41.40
2023-01-28T18:27:00.261Z,37.92
2023-01-28T18:32:04.667Z,36.17
2023-01-28T18:37:08.660Z,44.40
2023-01-28T18:42:13.466Z,41.05
2023-01-28T18:47:17.792Z,37.10
2023-01-28T18:52:20.948Z,41.70
2023-01-28T18:57:25.515Z,34.97
2023-01-28T19:02:28.728Z,33.07
2023-01-28T19:07:32.095Z,42.17
2023-01-28T19:12:36.636Z,36.72
2023-01-28T19:17:39.800Z,42.83
2023-01-28T19:22:43.167Z,37.10
2023-01-28T19:27:47.899Z,37.28
2023-01-28T19:32:51.023Z,33.47
2023-01-28T19:37:54.171Z,33.13
2023-01-28T19:43:00.194Z,33.90
2023-01-28T19:48:03.694Z,33.20
2023-01-28T19:53:06.790Z,30.45
2023-01-28T19:58:11.660Z,33.67
2023-01-28T20:03:14.791Z,37.67
2023-01-28T20:08:17.916Z,37.08
2023-01-28T20:13:22.493Z,37.60
2023-01-28T20:18:26.305Z,38.47
2023-01-28T20:23:29.703Z,39.72
2023-01-28T20:28:35.568Z,38.13
2023-01-28T20:33:40.726Z,39.63
2023-01-28T20:38:46.565Z,40.25
2023-01-28T20:43:52.508Z,43.38
2023-01-28T20:48:57.129Z,44.38
2023-01-28T20:54:01.464Z,43.33
2023-01-28T20:59:07.663Z,41.37
2023-01-28T21:04:10.968Z,40.75
2023-01-28T21:09:14.132Z,42.03
2023-01-28T21:14:18.676Z,45.30
2023-01-28T21:19:21.843Z,38.93
2023-01-28T21:24:25.044Z,43.85
2023-01-28T21:29:29.591Z,40.90
2023-01-28T21:34:32.767Z,41.23
2023-01-28T21:39:36.238Z,34.55
2023-01-28T21:44:40.788Z,34.75
2023-01-28T21:49:43.976Z,34.37
2023-01-28T21:54:47.112Z,31.40
2023-01-28T21:59:51.670Z,35.45
2023-01-28T22:04:54.846Z,34.67
2023-01-28T22:09:57.995Z,37.55
2023-01-28T22:15:02.569Z,40.35
2023-01-28T22:20:06.580Z,34.97
2023-01-28T22:25:10.585Z,31.77
2023-01-28T22:30:15.960Z,33.78
2023-01-28T22:35:19.303Z,34.95
2023-01-28T22:40:22.446Z,29.90
2023-01-28T22:45:27.266Z,32.63
2023-01-28T22:50:30.392Z,33.63
2023-01-28T22:55:33.874Z,34.03
2023-01-28T23:00:39.019Z,31.23
2023-01-28T23:05:42.229Z,32.53
2023-01-28T23:10:50.247Z,26.13
2023-01-28T23:16:12.577Z,44.53
2023-01-28T23:21:35.960Z,49.60
2023-01-28T23:26:39.117Z,27.50
2023-01-28T23:31:46.701Z,27.17
2023-01-28T23:36:50.690Z,21.42
2023-01-28T23:41:53.835Z,27.00
2023-01-28T23:46:58.434Z,26.95
2023-01-28T23:52:02.151Z,30.40
2023-01-28T23:57:05.879Z,25.38
